Time;durP1;ratioP1;P1;durP2;ratioP2;P2;SDS_P1;SDS_P2;PMS_P1;PMS_P2;Temp;Humidity;BMP_temperature;BMP_pressure;BME280_temperature;BME280_humidity;BME280_pressure;Samples;Min_cycle;Max_cycle;Signal;HPM_P1;HPM_P2
2022/07/06 00:01:24;;;;;;;;;;;23.30;70.10;;;;;;5033451;28;19956;-96
2022/07/06 00:03:50;;;;;;;;;;;23.30;70.90;;;;;;5032240;28;19976;-96
2022/07/06 00:06:17;;;;;;;;;;;23.30;71.40;;;;;;5032801;28;19939;-96
2022/07/06 00:08:49;;;;;;;;;;;23.10;71.60;;;;;;5035619;28;19953;-96
2022/07/06 00:11:20;;;;;;;;;;;22.70;74.40;;;;;;5037903;28;20419;-96
2022/07/06 00:13:51;;;;;;;;;;;22.30;76.20;;;;;;5037832;28;19926;-96
2022/07/06 00:31:53;;;;;;;;;;;21.70;79.60;;;;;;5131588;23;19961;-96
2022/07/06 00:34:27;;;;;;;;;;;21.60;81.10;;;;;;5038965;28;19954;-96
2022/07/06 02:18:26;;;;;;;;;;;21.20;87.60;;;;;;5637930;23;19978;-96
2022/07/06 02:21:08;;;;;;;;;;;21.00;88.10;;;;;;5018918;28;19948;-96
2022/07/06 02:23:40;;;;;;;;;;;20.80;88.70;;;;;;5004026;28;20052;-96
2022/07/06 02:57:04;;;;;;;;;;;21.30;90.00;;;;;;5231043;22;24140256;-96
2022/07/06 02:59:45;;;;;;;;;;;21.30;89.60;;;;;;6249199;23;19944;-96
2022/07/06 03:02:27;;;;;;;;;;;21.20;89.30;;;;;;6234356;23;19926;-96
2022/07/06 03:04:57;;;;;;;;;;;21.00;89.00;;;;;;6224516;23;19942;-96
2022/07/06 03:07:29;;;;;;;;;;;21.00;89.40;;;;;;6252335;23;19954;-96
2022/07/06 03:09:57;;;;;;;;;;;21.00;89.40;;;;;;6226401;23;19940;-96
2022/07/06 03:12:25;;;;;;;;;;;21.10;89.00;;;;;;6225833;23;19920;-96
2022/07/06 03:14:58;;;;;;;;;;;21.00;88.70;;;;;;6225334;23;19922;-96
2022/07/06 03:17:28;;;;;;;;;;;21.00;88.70;;;;;;6224488;23;19929;-96
2022/07/06 03:20:11;;;;;;;;;;;21.00;88.80;;;;;;6224533;23;19936;-96
2022/07/06 03:22:52;;;;;;;;;;;20.90;88.90;;;;;;6202059;23;19925;-96
2022/07/06 04:21:20;;;;;;;;;;;21.50;87.60;;;;;;6231357;22;19989;-96
2022/07/06 04:23:48;;;;;;;;;;;21.70;87.10;;;;;;6218414;23;19962;-96
2022/07/06 04:26:31;;;;;;;;;;;21.80;86.90;;;;;;6242698;23;19968;-96
2022/07/06 04:57:25;;;;;;;;;;;21.90;87.20;;;;;;6241505;23;19971;-96
2022/07/06 04:59:52;;;;;;;;;;;21.90;87.20;;;;;;6214531;23;19932;-96
2022/07/06 05:02:19;;;;;;;;;;;22.00;87.30;;;;;;6214435;23;19944;-96
2022/07/06 05:04:54;;;;;;;;;;;22.00;86.90;;;;;;6239977;23;19933;-96
2022/07/06 05:07:21;;;;;;;;;;;22.00;86.70;;;;;;6214069;23;19960;-96
2022/07/06 05:09:47;;;;;;;;;;;22.10;86.90;;;;;;6215670;23;19922;-96
2022/07/06 05:12:15;;;;;;;;;;;22.00;87.40;;;;;;6215172;23;19933;-96
2022/07/06 05:14:42;;;;;;;;;;;22.00;87.60;;;;;;6211610;23;19937;-96
2022/07/06 05:17:08;;;;;;;;;;;22.00;88.10;;;;;;6213972;23;19947;-96
2022/07/06 05:19:34;;;;;;;;;;;22.00;87.40;;;;;;6212915;23;19950;-96
2022/07/06 05:22:00;;;;;;;;;;;22.00;86.70;;;;;;6210862;23;19975;-96
2022/07/06 05:24:29;;;;;;;;;;;22.10;86.40;;;;;;6210017;23;19960;-96
2022/07/06 05:26:54;;;;;;;;;;;22.30;85.50;;;;;;6236790;23;19937;-96
2022/07/06 05:29:20;;;;;;;;;;;22.40;84.40;;;;;;6209629;23;19993;-96
2022/07/06 05:31:46;;;;;;;;;;;22.60;84.30;;;;;;6238499;23;19942;-96
2022/07/06 05:34:13;;;;;;;;;;;22.70;83.70;;;;;;6213796;23;19929;-96
2022/07/06 05:36:43;;;;;;;;;;;22.70;83.50;;;;;;6240346;23;19937;-96
2022/07/06 05:39:10;;;;;;;;;;;22.80;83.20;;;;;;6190879;23;19946;-96
2022/07/06 05:41:36;;;;;;;;;;;22.80;83.00;;;;;;6214031;23;19946;-96
2022/07/06 05:44:02;;;;;;;;;;;22.80;82.60;;;;;;6212920;23;19976;-96
2022/07/06 05:46:28;;;;;;;;;;;22.90;82.00;;;;;;6212952;23;20002;-96
2022/07/06 05:51:39;;;;;;;;;;;23.00;81.60;;;;;;6239125;23;19964;-96
2022/07/06 05:54:05;;;;;;;;;;;23.10;80.60;;;;;;6212405;23;19944;-96
2022/07/06 05:56:32;;;;;;;;;;;23.20;80.50;;;;;;6207107;23;19977;-96
2022/07/06 05:58:58;;;;;;;;;;;23.30;80.40;;;;;;6208467;23;19937;-96
2022/07/06 06:01:25;;;;;;;;;;;23.40;79.60;;;;;;6208826;23;19945;-96
2022/07/06 06:03:54;;;;;;;;;;;23.50;79.30;;;;;;6207296;23;20008;-96
2022/07/06 06:06:20;;;;;;;;;;;23.70;77.60;;;;;;6205319;23;19998;-96
2022/07/06 06:08:46;;;;;;;;;;;23.80;76.30;;;;;;6205926;23;19934;-96
2022/07/06 06:11:12;;;;;;;;;;;24.00;76.10;;;;;;6205173;23;19940;-96
2022/07/06 06:13:38;;;;;;;;;;;24.20;75.20;;;;;;6204267;23;19942;-96
2022/07/06 06:16:04;;;;;;;;;;;24.30;73.70;;;;;;6203178;23;19952;-96
2022/07/06 06:18:30;;;;;;;;;;;24.50;72.80;;;;;;6204268;23;19938;-96
2022/07/06 06:20:55;;;;;;;;;;;24.50;71.70;;;;;;6202333;23;19941;-96
2022/07/06 06:23:21;;;;;;;;;;;24.70;71.60;;;;;;6202606;23;19993;-96
2022/07/06 06:25:50;;;;;;;;;;;24.70;72.20;;;;;;6203282;23;19949;-96
2022/07/06 06:28:16;;;;;;;;;;;24.80;72.50;;;;;;6201821;23;19969;-96
2022/07/06 06:30:41;;;;;;;;;;;24.80;72.40;;;;;;6199192;23;19966;-96
2022/07/06 06:33:14;;;;;;;;;;;24.90;72.20;;;;;;6200376;23;19941;-96
2022/07/06 06:43:23;;;;;;;;;;;25.20;70.80;;;;;;6216039;23;19958;-95
2022/07/06 06:45:48;;;;;;;;;;;25.20;70.70;;;;;;6189322;23;20022;-95
2022/07/06 06:48:14;;;;;;;;;;;25.20;70.20;;;;;;6189063;23;19942;-95
2022/07/06 06:50:40;;;;;;;;;;;25.30;70.70;;;;;;6216265;23;19940;-96
2022/07/06 06:53:05;;;;;;;;;;;25.30;70.10;;;;;;6216471;23;19939;-95
2022/07/06 06:55:31;;;;;;;;;;;25.30;69.10;;;;;;6216029;23;20042;-95
2022/07/06 06:57:56;;;;;;;;;;;25.50;69.60;;;;;;6216022;23;19965;-95
2022/07/06 07:00:22;;;;;;;;;;;25.60;68.70;;;;;;6216027;23;19940;-95
2022/07/06 07:02:47;;;;;;;;;;;25.70;67.50;;;;;;6216162;23;19936;-96
2022/07/06 07:05:13;;;;;;;;;;;25.70;66.90;;;;;;6216072;23;20248;-94
2022/07/06 07:07:39;;;;;;;;;;;25.80;66.50;;;;;;6215749;23;19945;-94
2022/07/06 07:10:05;;;;;;;;;;;25.80;66.70;;;;;;6216324;23;19941;-95
2022/07/06 07:12:30;;;;;;;;;;;25.90;66.70;;;;;;6216190;23;19934;-94
2022/07/06 07:14:56;;;;;;;;;;;26.00;65.20;;;;;;6217653;23;19941;-95
2022/07/06 07:17:21;;;;;;;;;;;26.00;64.30;;;;;;6217942;23;19953;-95
2022/07/06 07:19:47;;;;;;;;;;;26.00;64.60;;;;;;6217831;23;19941;-96
2022/07/06 07:22:12;;;;;;;;;;;26.10;63.30;;;;;;6218700;23;19950;-96
2022/07/06 07:24:38;;;;;;;;;;;26.20;63.80;;;;;;6218936;23;19940;-95
2022/07/06 07:27:05;;;;;;;;;;;26.20;63.00;;;;;;6165275;23;19955;-95
2022/07/06 07:29:30;;;;;;;;;;;26.20;62.90;;;;;;6188340;23;19942;-95
2022/07/06 07:31:56;;;;;;;;;;;26.30;62.10;;;;;;6188239;23;19940;-95
2022/07/06 07:34:21;;;;;;;;;;;26.30;62.30;;;;;;6188238;23;19938;-95
2022/07/06 07:36:47;;;;;;;;;;;26.50;61.90;;;;;;6186937;23;20368;-95
2022/07/06 07:39:13;;;;;;;;;;;26.60;61.40;;;;;;6188374;23;19938;-94
2022/07/06 07:41:39;;;;;;;;;;;26.60;61.30;;;;;;6187467;23;20391;-95
2022/07/06 07:44:04;;;;;;;;;;;26.70;62.00;;;;;;6187980;23;19945;-94
2022/07/06 07:46:30;;;;;;;;;;;26.90;61.00;;;;;;6187739;23;19935;-94
2022/07/06 07:48:56;;;;;;;;;;;27.00;61.10;;;;;;6187353;23;19976;-95
2022/07/06 07:51:21;;;;;;;;;;;27.20;59.70;;;;;;6187673;23;20002;-95
2022/07/06 07:53:47;;;;;;;;;;;27.30;57.60;;;;;;6187930;23;20353;-95
2022/07/06 07:56:12;;;;;;;;;;;27.50;57.30;;;;;;6161037;23;20299;-96
2022/07/06 07:58:38;;;;;;;;;;;27.50;55.80;;;;;;6161183;23;20421;-96
2022/07/06 08:01:04;;;;;;;;;;;27.60;57.20;;;;;;6187223;23;20271;-95
2022/07/06 08:03:31;;;;;;;;;;;27.80;57.70;;;;;;6187518;23;20260;-96
2022/07/06 08:05:57;;;;;;;;;;;27.80;56.20;;;;;;6187846;23;19951;-96
2022/07/06 08:08:22;;;;;;;;;;;27.90;56.30;;;;;;6186631;23;19931;-96
2022/07/06 08:10:48;;;;;;;;;;;27.90;56.50;;;;;;6186217;23;20027;-95
2022/07/06 08:13:14;;;;;;;;;;;27.90;54.60;;;;;;6185947;23;19939;-96
2022/07/06 08:15:40;;;;;;;;;;;28.00;55.90;;;;;;6186007;23;19931;-96
2022/07/06 08:18:06;;;;;;;;;;;27.90;57.00;;;;;;6187217;23;19995;-96
2022/07/06 08:20:31;;;;;;;;;;;28.00;57.80;;;;;;6187428;23;19947;-95
2022/07/06 08:22:57;;;;;;;;;;;28.00;57.70;;;;;;6187515;23;19937;-96
2022/07/06 08:25:22;;;;;;;;;;;28.00;55.00;;;;;;6187369;23;19961;-95
2022/07/06 08:27:48;;;;;;;;;;;28.10;53.30;;;;;;6187355;23;19993;-95
2022/07/06 08:30:14;;;;;;;;;;;28.00;52.50;;;;;;6161534;23;20295;-95
2022/07/06 08:32:40;;;;;;;;;;;28.20;54.30;;;;;;6187083;23;20299;-95
2022/07/06 08:35:06;;;;;;;;;;;28.20;54.00;;;;;;6160988;23;19943;-96
2022/07/06 08:37:31;;;;;;;;;;;28.20;53.60;;;;;;6187567;23;20278;-95
2022/07/06 08:39:57;;;;;;;;;;;28.30;52.40;;;;;;6186976;23;19934;-96
2022/07/06 08:42:25;;;;;;;;;;;28.40;52.60;;;;;;6186796;23;20418;-96
2022/07/06 08:44:53;;;;;;;;;;;28.50;49.60;;;;;;6187050;23;19933;-95
2022/07/06 08:47:18;;;;;;;;;;;28.50;50.30;;;;;;6187342;23;19944;-95
2022/07/06 08:49:44;;;;;;;;;;;28.50;49.30;;;;;;6187235;23;20308;-96
2022/07/06 08:52:10;;;;;;;;;;;28.40;48.40;;;;;;6186458;23;19934;-95
2022/07/06 08:54:35;;;;;;;;;;;28.50;51.10;;;;;;6186952;23;19938;-95
2022/07/06 08:57:02;;;;;;;;;;;28.50;53.30;;;;;;6186984;23;19955;-95
2022/07/06 08:59:27;;;;;;;;;;;28.50;50.10;;;;;;6187453;23;19933;-96
2022/07/06 09:01:53;;;;;;;;;;;28.50;51.30;;;;;;6186997;23;20007;-95
2022/07/06 09:04:21;;;;;;;;;;;28.60;51.60;;;;;;6187475;23;19943;-94
2022/07/06 09:06:48;;;;;;;;;;;28.70;50.40;;;;;;6186894;23;19943;-95
2022/07/06 09:09:18;;;;;;;;;;;28.70;51.50;;;;;;6186649;23;20313;-96
2022/07/06 09:11:43;;;;;;;;;;;28.80;48.50;;;;;;6186050;23;19936;-94
2022/07/06 09:14:09;;;;;;;;;;;28.80;47.50;;;;;;6186663;23;19957;-95
2022/07/06 09:16:35;;;;;;;;;;;28.70;48.50;;;;;;6186478;23;20015;-95
2022/07/06 09:19:01;;;;;;;;;;;28.80;49.20;;;;;;6185392;23;19948;-95
2022/07/06 09:21:30;;;;;;;;;;;28.90;46.40;;;;;;6187055;23;19941;-94
2022/07/06 09:23:57;;;;;;;;;;;28.90;45.10;;;;;;6186577;23;19958;-94
2022/07/06 09:26:23;;;;;;;;;;;29.10;46.20;;;;;;6186276;23;19970;-94
2022/07/06 09:28:48;;;;;;;;;;;29.20;42.70;;;;;;6186243;23;19938;-95
2022/07/06 09:31:14;;;;;;;;;;;29.20;45.40;;;;;;6186565;23;19932;-94
2022/07/06 09:33:52;;;;;;;;;;;29.20;46.30;;;;;;6186661;23;20322;-94
2022/07/06 09:36:36;;;;;;;;;;;29.30;46.00;;;;;;6186678;23;19948;-95
2022/07/06 09:39:14;;;;;;;;;;;29.30;43.70;;;;;;6186470;23;20014;-94
2022/07/06 09:41:40;;;;;;;;;;;29.20;44.00;;;;;;6186665;23;19967;-95
2022/07/06 09:44:06;;;;;;;;;;;29.30;45.10;;;;;;6185563;23;19937;-94
2022/07/06 09:46:41;;;;;;;;;;;29.40;44.00;;;;;;6186391;23;19965;-94
2022/07/06 09:49:07;;;;;;;;;;;29.40;44.60;;;;;;6186521;23;19948;-94
2022/07/06 09:51:35;;;;;;;;;;;29.40;43.30;;;;;;6186333;23;19933;-94
2022/07/06 09:54:03;;;;;;;;;;;29.40;44.80;;;;;;6187034;23;19932;-95
2022/07/06 09:56:37;;;;;;;;;;;29.50;45.10;;;;;;6186360;23;19998;-95
2022/07/06 09:59:12;;;;;;;;;;;29.60;45.80;;;;;;6160250;23;20352;-95
2022/07/06 10:01:39;;;;;;;;;;;29.70;47.30;;;;;;6186879;23;19935;-95
2022/07/06 10:04:08;;;;;;;;;;;29.90;46.20;;;;;;6186504;23;19940;-95
2022/07/06 10:06:34;;;;;;;;;;;30.10;44.60;;;;;;6186681;23;20010;-95
2022/07/06 10:08:59;;;;;;;;;;;30.20;42.80;;;;;;6186520;23;19933;-94
2022/07/06 10:11:27;;;;;;;;;;;30.20;43.20;;;;;;6186387;23;19970;-95
2022/07/06 10:13:55;;;;;;;;;;;30.20;43.30;;;;;;6185919;23;19958;-96
2022/07/06 10:16:24;;;;;;;;;;;30.30;41.10;;;;;;6186280;23;19965;-94
2022/07/06 10:18:53;;;;;;;;;;;30.20;41.60;;;;;;6186658;23;19936;-95
2022/07/06 10:21:20;;;;;;;;;;;30.00;41.30;;;;;;6186739;23;19937;-95
2022/07/06 10:23:45;;;;;;;;;;;30.00;41.40;;;;;;6186307;23;19936;-95
2022/07/06 10:26:11;;;;;;;;;;;30.00;40.40;;;;;;6186478;23;20029;-96
2022/07/06 10:28:37;;;;;;;;;;;30.20;44.00;;;;;;6187091;23;19952;-96
2022/07/06 10:31:03;;;;;;;;;;;30.30;41.50;;;;;;6186276;23;19940;-95
2022/07/06 10:33:29;;;;;;;;;;;30.20;40.50;;;;;;6186394;23;20260;-96
2022/07/06 10:35:56;;;;;;;;;;;30.20;43.10;;;;;;6186510;23;20363;-95
2022/07/06 10:38:29;;;;;;;;;;;30.20;42.00;;;;;;6186280;23;19983;-94
2022/07/06 10:41:04;;;;;;;;;;;30.30;42.50;;;;;;6186223;23;19944;-95
2022/07/06 10:43:36;;;;;;;;;;;30.50;42.80;;;;;;6187035;23;19944;-94
2022/07/06 10:46:05;;;;;;;;;;;30.70;42.30;;;;;;6186593;23;19990;-95
2022/07/06 10:48:35;;;;;;;;;;;30.70;40.90;;;;;;6186795;23;20237;-95
2022/07/06 10:51:02;;;;;;;;;;;30.70;41.30;;;;;;6188415;23;20237;-95
2022/07/06 10:53:30;;;;;;;;;;;30.60;39.30;;;;;;6188153;23;19972;-96
2022/07/06 10:55:56;;;;;;;;;;;30.70;39.00;;;;;;6188207;23;19940;-95
2022/07/06 10:58:34;;;;;;;;;;;30.90;40.80;;;;;;6188818;23;19959;-95
2022/07/06 11:01:00;;;;;;;;;;;30.90;38.00;;;;;;6188176;23;19990;-95
2022/07/06 11:03:44;;;;;;;;;;;30.80;39.00;;;;;;6188575;23;20298;-95
2022/07/06 11:06:17;;;;;;;;;;;30.70;39.30;;;;;;6188457;23;19938;-95
2022/07/06 11:08:44;;;;;;;;;;;30.60;37.70;;;;;;6188628;23;19931;-94
2022/07/06 11:11:16;;;;;;;;;;;30.60;38.40;;;;;;6188182;23;19948;-94
2022/07/06 11:13:52;;;;;;;;;;;30.60;40.20;;;;;;6188775;23;19940;-94
2022/07/06 11:16:19;;;;;;;;;;;30.70;39.60;;;;;;6161626;23;19936;-95
2022/07/06 11:18:49;;;;;;;;;;;30.70;37.60;;;;;;6188583;23;19964;-94
2022/07/06 11:21:18;;;;;;;;;;;30.80;36.80;;;;;;6188384;23;19982;-94
2022/07/06 11:23:45;;;;;;;;;;;31.00;38.90;;;;;;6188020;23;20016;-95
2022/07/06 11:26:11;;;;;;;;;;;31.00;36.70;;;;;;6187965;23;19953;-94
2022/07/06 11:28:37;;;;;;;;;;;31.20;35.80;;;;;;6187584;23;20349;-95
2022/07/06 11:31:03;;;;;;;;;;;31.20;36.00;;;;;;6187579;23;19939;-95
2022/07/06 11:33:29;;;;;;;;;;;31.20;35.10;;;;;;6187516;23;19979;-95
2022/07/06 11:36:13;;;;;;;;;;;31.30;33.70;;;;;;6187845;23;20344;-95
2022/07/06 11:38:40;;;;;;;;;;;31.50;33.50;;;;;;6161806;23;19951;-95
2022/07/06 11:41:05;;;;;;;;;;;31.60;35.70;;;;;;6187536;23;19994;-95
2022/07/06 11:43:31;;;;;;;;;;;31.70;30.20;;;;;;6187725;23;20299;-94
2022/07/06 11:45:56;;;;;;;;;;;31.70;29.60;;;;;;6187826;23;19937;-95
2022/07/06 11:48:22;;;;;;;;;;;31.80;32.30;;;;;;6188251;23;20350;-95
2022/07/06 11:51:00;;;;;;;;;;;32.10;32.40;;;;;;6189357;23;20355;-94
2022/07/06 11:53:26;;;;;;;;;;;32.40;33.10;;;;;;6189498;23;19958;-95
2022/07/06 11:55:52;;;;;;;;;;;32.60;31.70;;;;;;6189144;23;19940;-95
2022/07/06 11:58:20;;;;;;;;;;;32.80;31.40;;;;;;6187735;23;19954;-95
2022/07/06 12:01:02;;;;;;;;;;;33.10;31.50;;;;;;6187536;23;19938;-96
2022/07/06 12:03:28;;;;;;;;;;;33.00;32.70;;;;;;6187612;23;19944;-95
2022/07/06 12:05:53;;;;;;;;;;;32.90;31.80;;;;;;6187686;23;19931;-95
2022/07/06 12:08:19;;;;;;;;;;;32.80;30.50;;;;;;6186964;23;19940;-96
2022/07/06 12:10:44;;;;;;;;;;;32.80;30.70;;;;;;6187455;23;20050;-96
2022/07/06 12:13:10;;;;;;;;;;;32.90;31.80;;;;;;6187572;23;20404;-96
2022/07/06 12:15:35;;;;;;;;;;;33.30;30.10;;;;;;6187558;23;19934;-96
2022/07/06 12:18:01;;;;;;;;;;;34.00;29.30;;;;;;6187855;23;19958;-96
2022/07/06 12:20:26;;;;;;;;;;;34.20;28.70;;;;;;6188249;23;20369;-97
2022/07/06 12:23:05;;;;;;;;;;;34.40;28.70;;;;;;6163072;23;20348;-96
2022/07/06 12:25:35;;;;;;;;;;;34.70;29.50;;;;;;6187669;23;19953;-96
2022/07/06 12:28:01;;;;;;;;;;;34.80;27.90;;;;;;6187296;23;20004;-94
2022/07/06 12:30:27;;;;;;;;;;;34.90;28.60;;;;;;6187432;23;19943;-95
2022/07/06 12:33:12;;;;;;;;;;;35.30;27.60;;;;;;6187051;23;19989;-95
2022/07/06 12:35:38;;;;;;;;;;;35.90;27.50;;;;;;6187119;23;19932;-95
2022/07/06 12:38:04;;;;;;;;;;;36.10;27.60;;;;;;6186356;23;20592;-96
2022/07/06 12:40:29;;;;;;;;;;;36.60;25.90;;;;;;6186388;23;19954;-96
2022/07/06 12:42:55;;;;;;;;;;;36.60;26.90;;;;;;6180784;23;19984;-96
2022/07/06 12:45:26;;;;;;;;;;;36.70;25.60;;;;;;6187127;23;19940;-95
2022/07/06 12:48:03;;;;;;;;;;;36.20;25.30;;;;;;6187343;23;19996;-96
2022/07/06 12:50:32;;;;;;;;;;;35.50;26.00;;;;;;6187142;23;20380;-95
2022/07/06 12:52:58;;;;;;;;;;;35.00;25.80;;;;;;6185584;23;19939;-95
2022/07/06 12:55:27;;;;;;;;;;;35.10;25.30;;;;;;6186654;23;19940;-95
2022/07/06 12:57:53;;;;;;;;;;;34.80;25.60;;;;;;6186387;23;19990;-95
2022/07/06 13:00:21;;;;;;;;;;;35.00;24.80;;;;;;6185088;23;20271;-95
2022/07/06 13:02:55;;;;;;;;;;;34.70;25.90;;;;;;6186495;23;19945;-95
2022/07/06 13:05:28;;;;;;;;;;;34.90;26.20;;;;;;6186806;23;19970;-96
2022/07/06 13:07:55;;;;;;;;;;;35.70;26.40;;;;;;6187261;23;19944;-96
2022/07/06 13:10:21;;;;;;;;;;;36.70;24.60;;;;;;6159821;23;19938;-96
2022/07/06 13:12:46;;;;;;;;;;;37.50;23.40;;;;;;6186597;23;20278;-96
2022/07/06 13:15:12;;;;;;;;;;;38.40;24.00;;;;;;6186854;23;19950;-96
2022/07/06 13:17:38;;;;;;;;;;;39.50;22.30;;;;;;6186595;23;19965;-96
2022/07/06 13:20:04;;;;;;;;;;;40.10;19.70;;;;;;6186651;23;19939;-96
2022/07/06 13:22:30;;;;;;;;;;;39.70;20.40;;;;;;6160382;23;19940;-96
2022/07/06 13:24:55;;;;;;;;;;;40.10;20.10;;;;;;6186729;23;20324;-96
2022/07/06 13:27:21;;;;;;;;;;;40.10;21.00;;;;;;6186738;23;19951;-96
2022/07/06 13:29:47;;;;;;;;;;;40.70;18.70;;;;;;6186707;23;20267;-96
2022/07/06 13:32:12;;;;;;;;;;;40.90;20.20;;;;;;6159742;23;19954;-96
2022/07/06 13:34:38;;;;;;;;;;;41.70;19.80;;;;;;6187225;23;19936;-95
2022/07/06 13:37:04;;;;;;;;;;;41.60;20.20;;;;;;6189650;23;19958;-95
2022/07/06 13:39:30;;;;;;;;;;;40.60;19.40;;;;;;6187379;23;19940;-95
2022/07/06 13:41:55;;;;;;;;;;;39.60;20.80;;;;;;6187705;23;20015;-94
2022/07/06 13:44:21;;;;;;;;;;;39.40;20.60;;;;;;6187304;23;19932;-95
2022/07/06 13:46:46;;;;;;;;;;;38.50;20.60;;;;;;6187942;23;19931;-95
2022/07/06 13:49:12;;;;;;;;;;;38.00;21.10;;;;;;6186957;23;19951;-95
2022/07/06 13:51:38;;;;;;;;;;;37.70;21.30;;;;;;6159941;23;19979;-96
2022/07/06 13:54:03;;;;;;;;;;;37.50;22.20;;;;;;6190163;23;19935;-96
2022/07/06 13:56:29;;;;;;;;;;;38.20;23.10;;;;;;6186582;23;19932;-95
2022/07/06 13:58:55;;;;;;;;;;;39.30;22.00;;;;;;6186589;23;20356;-96
2022/07/06 14:01:21;;;;;;;;;;;40.20;20.30;;;;;;6160257;23;19936;-96
2022/07/06 14:03:46;;;;;;;;;;;40.30;20.50;;;;;;6186660;23;20302;-96
2022/07/06 14:06:12;;;;;;;;;;;41.10;19.10;;;;;;6186240;23;19947;-96
2022/07/06 14:08:38;;;;;;;;;;;41.80;19.50;;;;;;6186501;23;19943;-96
2022/07/06 14:11:05;;;;;;;;;;;42.10;17.80;;;;;;6159571;23;19964;-95
2022/07/06 14:13:31;;;;;;;;;;;42.10;18.90;;;;;;6186605;23;19940;-96
2022/07/06 14:15:56;;;;;;;;;;;42.90;17.30;;;;;;6186194;23;19933;-96
2022/07/06 14:18:22;;;;;;;;;;;43.10;18.30;;;;;;6160024;23;20286;-96
2022/07/06 14:20:48;;;;;;;;;;;42.90;18.40;;;;;;6186510;23;19936;-96
2022/07/06 14:23:14;;;;;;;;;;;43.10;18.50;;;;;;6186421;23;19929;-96
2022/07/06 14:25:41;;;;;;;;;;;42.60;17.80;;;;;;6186584;23;20050;-95
2022/07/06 14:28:07;;;;;;;;;;;42.00;18.60;;;;;;6186296;23;19936;-96
2022/07/06 14:30:33;;;;;;;;;;;41.70;17.50;;;;;;6186233;23;19931;-95
2022/07/06 14:32:58;;;;;;;;;;;41.20;18.60;;;;;;6186288;23;19954;-95
2022/07/06 14:35:24;;;;;;;;;;;40.40;19.90;;;;;;6186201;23;20300;-96
2022/07/06 14:37:50;;;;;;;;;;;40.60;19.70;;;;;;6186634;23;20036;-95
2022/07/06 14:40:15;;;;;;;;;;;41.10;19.30;;;;;;6185668;23;20013;-96
2022/07/06 14:42:41;;;;;;;;;;;41.60;19.30;;;;;;6207675;22;20291;-95
2022/07/06 14:45:07;;;;;;;;;;;41.60;19.00;;;;;;6216190;23;19939;-96
2022/07/06 14:47:32;;;;;;;;;;;41.70;18.70;;;;;;6216425;23;20013;-95
2022/07/06 14:49:58;;;;;;;;;;;41.80;19.00;;;;;;6216289;23;20402;-96
2022/07/06 14:52:23;;;;;;;;;;;42.20;17.80;;;;;;6216278;23;19955;-96
2022/07/06 14:54:49;;;;;;;;;;;41.10;18.70;;;;;;6216194;23;19948;-95
2022/07/06 14:57:14;;;;;;;;;;;40.80;18.20;;;;;;6215904;23;19960;-95
2022/07/06 14:59:40;;;;;;;;;;;40.70;18.80;;;;;;6216172;23;19941;-95
2022/07/06 15:02:06;;;;;;;;;;;41.60;19.60;;;;;;6215913;23;19968;-96
2022/07/06 15:04:32;;;;;;;;;;;41.70;18.20;;;;;;6216465;23;19934;-96
2022/07/06 15:06:58;;;;;;;;;;;42.10;19.20;;;;;;6216123;23;20334;-95
2022/07/06 15:09:25;;;;;;;;;;;42.20;18.50;;;;;;6216142;23;19982;-96
2022/07/06 15:11:51;;;;;;;;;;;42.60;18.40;;;;;;6216046;23;19945;-95
2022/07/06 15:14:17;;;;;;;;;;;42.70;17.90;;;;;;6216326;23;20454;-95
2022/07/06 15:16:44;;;;;;;;;;;42.70;17.40;;;;;;6216336;23;20048;-95
2022/07/06 15:19:09;;;;;;;;;;;42.80;18.10;;;;;;6216249;23;19934;-96
2022/07/06 15:21:35;;;;;;;;;;;42.60;18.90;;;;;;6216145;23;19964;-95
2022/07/06 15:24:00;;;;;;;;;;;42.10;18.30;;;;;;6189325;23;19939;-94
2022/07/06 15:26:26;;;;;;;;;;;41.40;18.60;;;;;;6216116;23;19945;-95
2022/07/06 15:28:52;;;;;;;;;;;40.60;19.80;;;;;;6215964;23;20012;-95
2022/07/06 15:31:17;;;;;;;;;;;40.10;19.40;;;;;;6216307;23;20019;-94
2022/07/06 15:33:44;;;;;;;;;;;39.80;20.10;;;;;;6215958;23;19938;-95
2022/07/06 15:36:10;;;;;;;;;;;39.70;19.30;;;;;;6218093;23;19938;-95
2022/07/06 15:38:36;;;;;;;;;;;40.30;19.60;;;;;;6217869;23;19959;-94
2022/07/06 15:41:03;;;;;;;;;;;40.20;20.40;;;;;;6217436;23;19932;-95
2022/07/06 15:43:32;;;;;;;;;;;40.30;19.80;;;;;;6191583;23;19941;-96
2022/07/06 15:46:00;;;;;;;;;;;40.50;20.40;;;;;;6218137;23;20012;-95
2022/07/06 15:48:25;;;;;;;;;;;40.50;20.10;;;;;;6191231;23;19941;-95
2022/07/06 15:50:51;;;;;;;;;;;39.90;20.50;;;;;;6217771;23;19980;-95
2022/07/06 15:53:17;;;;;;;;;;;39.50;20.70;;;;;;6217234;23;19939;-95
2022/07/06 15:55:43;;;;;;;;;;;38.80;22.20;;;;;;6217763;23;19958;-94
2022/07/06 15:58:09;;;;;;;;;;;38.00;22.60;;;;;;6218380;23;19972;-94
2022/07/06 16:00:34;;;;;;;;;;;37.80;23.30;;;;;;6216913;23;19947;-95
2022/07/06 16:03:00;;;;;;;;;;;37.50;22.60;;;;;;6217555;23;19975;-95
2022/07/06 16:05:26;;;;;;;;;;;37.10;24.00;;;;;;6217818;23;19973;-94
2022/07/06 16:07:52;;;;;;;;;;;36.10;24.30;;;;;;6217704;23;19983;-94
2022/07/06 16:10:18;;;;;;;;;;;35.70;25.10;;;;;;6217700;23;19943;-94
2022/07/06 16:12:43;;;;;;;;;;;35.20;25.90;;;;;;6211480;23;19953;-95
2022/07/06 16:15:09;;;;;;;;;;;35.10;25.70;;;;;;6217637;23;20352;-94
2022/07/06 16:17:35;;;;;;;;;;;35.00;26.60;;;;;;6217604;23;20274;-94
2022/07/06 16:20:00;;;;;;;;;;;35.00;25.90;;;;;;6217103;23;19937;-94
2022/07/06 16:22:26;;;;;;;;;;;34.90;26.00;;;;;;6217132;23;19976;-95
2022/07/06 16:24:52;;;;;;;;;;;34.80;27.40;;;;;;6217535;23;19951;-94
2022/07/06 16:27:17;;;;;;;;;;;34.70;26.80;;;;;;6217217;23;19954;-94
2022/07/06 16:29:43;;;;;;;;;;;34.50;26.40;;;;;;6216895;23;19937;-95
2022/07/06 16:32:09;;;;;;;;;;;34.10;27.40;;;;;;6217786;23;19979;-95
2022/07/06 16:34:34;;;;;;;;;;;34.10;28.20;;;;;;6217368;23;20345;-94
2022/07/06 16:37:00;;;;;;;;;;;33.90;27.00;;;;;;6217774;23;19957;-95
2022/07/06 16:39:25;;;;;;;;;;;34.00;28.70;;;;;;6217398;23;20261;-95
2022/07/06 16:41:51;;;;;;;;;;;34.10;27.90;;;;;;6216998;23;19989;-95
2022/07/06 16:44:17;;;;;;;;;;;33.90;27.50;;;;;;6217294;23;20265;-95
2022/07/06 16:46:42;;;;;;;;;;;33.70;27.30;;;;;;6217604;23;19940;-94
2022/07/06 16:49:08;;;;;;;;;;;33.20;28.30;;;;;;6190586;23;19957;-94
2022/07/06 16:51:33;;;;;;;;;;;32.70;27.60;;;;;;6217177;23;20298;-95
2022/07/06 16:53:59;;;;;;;;;;;32.50;29.40;;;;;;6217043;23;20345;-94
2022/07/06 16:56:24;;;;;;;;;;;32.40;29.40;;;;;;6217000;23;19933;-94
2022/07/06 16:58:50;;;;;;;;;;;32.40;29.40;;;;;;6216880;23;19941;-96
2022/07/06 17:01:16;;;;;;;;;;;32.20;30.50;;;;;;6219263;23;19935;-96
2022/07/06 17:03:41;;;;;;;;;;;32.00;30.20;;;;;;6219891;23;19936;-96
2022/07/06 17:06:07;;;;;;;;;;;31.70;30.70;;;;;;6220793;23;20466;-96
2022/07/06 17:08:33;;;;;;;;;;;31.50;31.00;;;;;;6225828;23;19943;-96
2022/07/06 17:10:58;;;;;;;;;;;31.30;31.80;;;;;;6228043;23;20005;-96
2022/07/06 17:13:25;;;;;;;;;;;31.20;32.90;;;;;;6207137;23;19947;-96
2022/07/06 17:15:50;;;;;;;;;;;31.10;32.60;;;;;;6208761;23;19976;-96
2022/07/06 17:18:16;;;;;;;;;;;31.10;33.80;;;;;;6236812;23;19973;-96
2022/07/06 17:20:42;;;;;;;;;;;31.10;34.20;;;;;;6210607;23;20343;-96
2022/07/06 17:23:08;;;;;;;;;;;31.00;33.80;;;;;;6208707;23;19944;-96
2022/07/06 17:25:34;;;;;;;;;;;31.00;34.50;;;;;;6211448;23;19957;-96
2022/07/06 17:28:03;;;;;;;;;;;31.00;34.20;;;;;;6213448;23;19935;-96
2022/07/06 17:30:32;;;;;;;;;;;31.10;35.60;;;;;;6211875;23;19984;-96
2022/07/06 17:32:58;;;;;;;;;;;31.20;33.70;;;;;;6211364;23;19999;-96
2022/07/06 17:35:24;;;;;;;;;;;31.20;34.30;;;;;;6237189;23;19935;-96
2022/07/06 17:37:50;;;;;;;;;;;31.20;33.90;;;;;;6211313;23;19967;-96
2022/07/06 17:40:15;;;;;;;;;;;31.20;34.90;;;;;;6209689;23;19937;-96
2022/07/06 17:42:41;;;;;;;;;;;31.20;34.90;;;;;;6207287;23;19968;-96
2022/07/06 17:45:07;;;;;;;;;;;31.10;34.50;;;;;;6234357;23;19931;-96
2022/07/06 17:47:33;;;;;;;;;;;31.10;34.90;;;;;;6207357;23;19957;-96
2022/07/06 17:50:07;;;;;;;;;;;31.00;35.60;;;;;;6208436;23;19938;-96
2022/07/06 17:52:32;;;;;;;;;;;30.80;36.70;;;;;;6236508;23;19960;-96
2022/07/06 17:54:58;;;;;;;;;;;30.70;35.70;;;;;;6207339;23;20004;-96
2022/07/06 17:57:24;;;;;;;;;;;30.60;35.10;;;;;;6226662;23;19994;-96
2022/07/06 17:59:51;;;;;;;;;;;30.50;35.00;;;;;;6225562;23;19940;-96
2022/07/06 18:02:17;;;;;;;;;;;30.40;34.80;;;;;;6232908;23;19967;-96
2022/07/06 18:04:42;;;;;;;;;;;30.20;34.60;;;;;;6232281;23;19977;-96
2022/07/06 18:07:08;;;;;;;;;;;30.20;35.20;;;;;;6233797;23;19963;-96
2022/07/06 18:09:34;;;;;;;;;;;30.10;35.50;;;;;;6234844;23;19934;-96
2022/07/06 18:12:00;;;;;;;;;;;30.00;35.40;;;;;;6207458;23;19943;-96
2022/07/06 18:14:26;;;;;;;;;;;29.90;35.50;;;;;;6234820;23;19956;-96
2022/07/06 18:16:52;;;;;;;;;;;29.90;35.90;;;;;;6207128;23;19982;-96
2022/07/06 18:19:18;;;;;;;;;;;29.80;37.40;;;;;;6209130;23;19935;-96